Weather reports worldwide

Advertisment
Pajares/Valgrande, Spain (8031): temperature & dewpoint: 08.12.2018 00:00:00 - 14.12.2018 00:00:00 (CET)Pajares/Valgrande, Spain (8031): wind speed & gusts: 08.12.2018 00:00:00 - 14.12.2018 00:00:00 (CET)Pajares/Valgrande, Spain (8031): wind direction: 08.12.2018 00:00:00 - 14.12.2018 00:00:00 (CET)Pajares/Valgrande, Spain (8031): precipitation: 08.12.2018 00:00:00 - 14.12.2018 00:00:00 (CET)
Date & Time tt [°C] td [°C] ff [km/h] ff [kn] fx [km/h] fx [kn] dd rr [mm]
14.12.2018 00:00:00 -0,3 -1,2 17 9 40 22 NW 0,0
13.12.2018 23:00:00 -0,4 -1,2 17 9 37 20 NW 0,0
13.12.2018 22:00:00 -0,5 -1,4 19 11 46 25 NW 0,0
13.12.2018 21:00:00 -0,6 -1,4 24 13 50 27 NW 0,0
13.12.2018 20:00:00 -0,6 -1,4 24 13 47 26 NW 0,0
13.12.2018 19:00:00 -0,8 -1,7 23 12 63 34 NW -
13.12.2018 18:00:00 -0,7 -1,7 29 15 60 32 NW 0,0
13.12.2018 17:00:00 -0,8 -2,0 27 15 58 32 NW 0,0
13.12.2018 16:00:00 -0,6 -2,0 28 15 67 36 NW 0,0
13.12.2018 15:00:00 -0,1 -2,2 21 12 58 32 NW 0,0
13.12.2018 14:00:00 -0,6 -1,4 23 13 57 31 NW 0,0
13.12.2018 13:00:00 -0,6 -1,4 29 16 55 30 NW -
13.12.2018 12:00:00 -0,4 -1,4 26 14 54 29 NW 0,0
13.12.2018 11:00:00 0,0 -1,7 20 11 46 25 NW 0,0
13.12.2018 10:00:00 - - - - - - - -
13.12.2018 09:00:00 - - - - - - - -
13.12.2018 08:00:00 - - - - - - - -
13.12.2018 07:00:00 - - - - - - - -
13.12.2018 06:00:00 - - - - - - - -
13.12.2018 05:00:00 - - - - - - - -
13.12.2018 04:00:00 - - - - - - - -
13.12.2018 03:00:00 - - - - - - - -
13.12.2018 02:00:00 - - - - - - - -
13.12.2018 01:00:00 - - - - - - - -
13.12.2018 00:00:00 1,8 0,9 29 16 54 29 S 0,0
12.12.2018 23:00:00 1,5 0,0 37 20 59 32 S 0,0
12.12.2018 22:00:00 2,5 0,4 29 16 54 29 S 0,0
12.12.2018 21:00:00 1,4 0,2 26 14 49 26 S 0,0
12.12.2018 20:00:00 1,7 0,6 17 9 37 20 SSE 0,0
12.12.2018 19:00:00 2,1 0,6 16 8 44 24 SSE -
12.12.2018 18:00:00 2,2 0,2 25 13 - - S 0,0
12.12.2018 17:00:00 2,6 -0,3 27 14 39 21 S 0,0
12.12.2018 16:00:00 3,4 -0,7 22 12 40 21 SSE 0,0
12.12.2018 15:00:00 3,7 -0,7 19 10 34 18 SSE 0,0
12.12.2018 14:00:00 - - - - - - - -
12.12.2018 13:00:00 - - - - - - - -
12.12.2018 12:00:00 3,6 0,0 16 8 37 20 S 0,0
12.12.2018 11:00:00 2,6 -0,3 26 14 36 20 S 0,0
12.12.2018 10:00:00 2,9 0,2 22 12 32 18 S 0,0
12.12.2018 09:00:00 2,4 0,2 19 11 28 15 SSE 0,0
12.12.2018 08:00:00 1,7 0,0 6 3 9 5 SSW 0,0
12.12.2018 07:00:00 1,7 0,0 0 0 8 4 N -
12.12.2018 06:00:00 1,6 -0,3 6 3 10 5 SSW 0,0
12.12.2018 05:00:00 2,3 0,4 5 3 9 5 S 0,0
12.12.2018 04:00:00 1,8 -0,3 0 0 5 3 N 0,0
12.12.2018 03:00:00 1,5 -0,7 0 0 9 5 W 0,0
12.12.2018 02:00:00 1,8 -0,7 8 4 12 6 SSW 0,0
12.12.2018 01:00:00 1,6 -1,0 9 5 12 6 SSW -
12.12.2018 00:00:00 2,2 -1,0 0 0 5 3 N 0,0
11.12.2018 23:00:00 2,7 -2,0 0 0 15 8 S 0,0
11.12.2018 22:00:00 4,1 -2,0 4 2 12 7 WNW 0,0
11.12.2018 21:00:00 3,3 -2,7 3 2 11 6 SW 0,0
11.12.2018 20:00:00 3,1 -3,6 10 5 12 6 SSW 0,0
11.12.2018 19:00:00 6,7 -1,7 7 4 12 7 SSW -
11.12.2018 18:00:00 7,1 -3,0 2 1 9 5 SSW 0,0
11.12.2018 17:00:00 7,8 -2,7 2 1 5 3 SSW 0,0
11.12.2018 16:00:00 9,4 -2,5 2 1 8 4 WNW 0,0
11.12.2018 15:00:00 10,7 -2,5 1 1 7 4 WNW 0,0
11.12.2018 14:00:00 11,0 -2,2 5 3 21 11 W 0,0
11.12.2018 13:00:00 11,8 -1,0 2 1 14 8 SSE -
11.12.2018 12:00:00 11,9 -1,2 3 2 9 5 NE 0,0
11.12.2018 11:00:00 9,2 -1,4 5 3 7 4 SSW 0,0
11.12.2018 10:00:00 8,9 -2,5 8 4 11 6 SW 0,0
11.12.2018 09:00:00 7,7 -3,3 9 5 14 8 SSW 0,0
11.12.2018 08:00:00 6,6 -3,9 9 5 12 7 SW 0,0
11.12.2018 07:00:00 7,2 -4,2 6 3 10 5 SSW -
11.12.2018 06:00:00 8,4 -4,8 7 4 13 7 SSW 0,0
11.12.2018 05:00:00 6,8 -5,7 9 5 14 8 SSW 0,0
11.12.2018 04:00:00 6,7 -5,1 9 5 20 11 SSW 0,0
11.12.2018 03:00:00 6,9 -4,5 8 4 27 15 S 0,0
11.12.2018 02:00:00 7,1 -4,2 12 7 42 23 S 0,0
11.12.2018 01:00:00 7,7 -3,3 16 9 31 17 S -
11.12.2018 00:00:00 6,9 -3,3 18 10 28 15 S 0,0
10.12.2018 23:00:00 7,5 -3,6 16 9 27 14 S 0,0
10.12.2018 22:00:00 7,0 -3,9 16 9 22 12 S 0,0
10.12.2018 21:00:00 7,4 -3,6 14 7 18 10 S 0,0
10.12.2018 20:00:00 6,6 -3,0 10 5 15 8 S 0,0
10.12.2018 19:00:00 5,6 -4,2 11 6 14 8 SSW -
10.12.2018 18:00:00 5,8 -5,4 9 5 11 6 SSW 0,0
10.12.2018 17:00:00 6,7 -6,0 6 3 9 5 SSW 0,0
10.12.2018 16:00:00 9,0 -7,8 0 0 5 3 N 0,0
10.12.2018 15:00:00 11,5 -9,4 0 0 5 3 N 0,0
10.12.2018 14:00:00 11,3 -8,6 3 1 9 5 W 0,0
10.12.2018 13:00:00 11,4 -7,8 1 1 7 4 SW -
10.12.2018 12:00:00 10,3 -8,2 3 2 6 3 W 0,0
10.12.2018 11:00:00 7,0 -7,5 0 0 6 3 N 0,0
10.12.2018 10:00:00 5,0 -9,0 4 2 9 5 W 0,0
10.12.2018 09:00:00 3,6 -10,3 2 1 6 4 WSW 0,0
10.12.2018 08:00:00 3,0 -10,3 3 1 7 4 WSW 0,0
10.12.2018 07:00:00 3,0 -9,9 0 0 6 3 N -
10.12.2018 06:00:00 2,7 -9,9 1 1 8 5 WSW 0,0
10.12.2018 05:00:00 3,0 -9,4 3 2 10 5 SW 0,0
10.12.2018 04:00:00 2,9 -10,8 6 3 9 5 SW 0,0
10.12.2018 03:00:00 5,3 -9,9 1 0 11 6 NNW 0,0
10.12.2018 02:00:00 4,2 -9,0 0 0 6 3 N 0,0
10.12.2018 01:00:00 3,0 -9,4 1 1 8 5 SSW -
10.12.2018 00:00:00 3,7 -9,0 1 1 7 4 W 0,0
09.12.2018 23:00:00 4,5 -8,2 1 0 8 5 NW 0,0
09.12.2018 22:00:00 4,6 -7,1 3 1 7 4 W 0,0
09.12.2018 21:00:00 4,4 -6,0 0 0 8 4 SSE 0,0
09.12.2018 20:00:00 4,8 -5,7 2 1 13 7 NW 0,0
09.12.2018 19:00:00 4,9 -4,2 0 0 9 5 N -
09.12.2018 18:00:00 4,5 -2,7 0 0 6 3 E 0,0
09.12.2018 17:00:00 6,0 -7,5 1 1 12 6 NNW 0,0
09.12.2018 16:00:00 7,9 -8,6 6 3 21 11 NW 0,0
09.12.2018 15:00:00 9,4 -9,9 11 6 31 17 NW 0,0
09.12.2018 14:00:00 9,5 -11,2 14 8 30 16 NW 0,0
09.12.2018 13:00:00 9,3 -11,2 14 7 29 16 NW -
09.12.2018 12:00:00 9,1 -11,7 10 5 23 12 NW 0,0
09.12.2018 11:00:00 8,7 -11,2 13 7 26 14 NW 0,0
09.12.2018 10:00:00 6,6 -11,2 5 3 19 10 NNW 0,0
09.12.2018 09:00:00 6,9 -10,8 10 5 22 12 NNW 0,0
09.12.2018 08:00:00 6,6 -10,8 8 4 23 12 NNW 0,0
09.12.2018 07:00:00 6,8 -9,9 10 6 29 15 NNW -
09.12.2018 06:00:00 7,6 -9,9 14 8 29 16 NNW 0,0
09.12.2018 05:00:00 8,5 -9,0 15 8 28 15 NW 0,0
09.12.2018 04:00:00 7,9 -3,9 9 5 19 10 NW 0,0
09.12.2018 03:00:00 6,3 -0,3 2 1 10 6 NW 0,0
09.12.2018 02:00:00 6,8 2,9 1 0 12 6 WNW 0,0
09.12.2018 01:00:00 7,3 4,5 4 2 12 6 WNW -
09.12.2018 00:00:00 7,6 4,1 3 2 13 7 WSW 0,0
08.12.2018 23:00:00 7,4 3,0 2 1 11 6 W 0,0
08.12.2018 22:00:00 6,3 -0,3 4 2 13 7 WSW 0,0
08.12.2018 21:00:00 6,1 -1,7 10 5 14 8 SSW 0,0
08.12.2018 20:00:00 6,0 -2,7 10 5 14 8 SSW 0,0
08.12.2018 19:00:00 6,2 -3,9 11 6 16 8 SSW -
08.12.2018 18:00:00 6,8 -3,6 6 3 10 6 SSW 0,0
08.12.2018 17:00:00 8,3 -0,7 6 3 10 6 SSW 0,0
08.12.2018 16:00:00 9,5 -2,0 4 2 9 5 SSW 0,0
08.12.2018 15:00:00 12,9 -1,2 4 2 8 4 WNW 0,0
08.12.2018 14:00:00 12,9 -0,7 1 1 10 5 WNW 0,0
08.12.2018 13:00:00 13,4 0,0 1 0 10 5 ENE -
08.12.2018 12:00:00 11,5 -1,0 8 4 16 8 NNE 0,0
08.12.2018 11:00:00 5,5 -4,2 6 3 9 5 SSW 0,0
08.12.2018 10:00:00 4,4 -7,1 1 1 12 7 N 0,0
08.12.2018 09:00:00 0,8 -8,6 1 0 8 4 SSW 0,0
08.12.2018 08:00:00 1,7 -8,6 2 1 18 10 NW 0,0
08.12.2018 07:00:00 2,6 -7,8 5 3 20 11 WNW -
08.12.2018 06:00:00 0,2 -2,7 1 0 9 5 NE 0,0
08.12.2018 05:00:00 0,9 -0,5 4 2 16 9 W 0,0
08.12.2018 04:00:00 0,4 -2,0 4 2 12 6 NW 0,0
08.12.2018 03:00:00 0,2 -0,7 3 2 10 5 SSW 0,0
08.12.2018 02:00:00 0,7 -0,3 1 0 6 3 SW 0,0
08.12.2018 01:00:00 2,2 1,3 3 2 8 4 N -
08.12.2018 00:00:00 2,6 1,5 6 3 16 8 NW 0,0

tt = temperature
td = dewpoint
ff = wind speed
fx = gusts
dd = wind direction
rr = precipitation

Next stations